Clyde, Ohio
Current Conditions -  °F | °C
As of 12:33 PM on Friday 24 Oct 2014 (Local Time) from KPCW Reporting Station
Clear Clear  
Wind Chill: 61°   Ceiling: Unl
Heat Index: 61°   Visibility: 10mi
Dew Point: 46°   Wind: 9mph
Humidity: 59%   Direction: 230°SW
Pressure: 30.07"   Gusts: NA
Location:  41.31°N, 82.97°W
Report Text: KPCW 241633Z AUTO 23008KT 10SM CLR 16/08 A3007 RMK AO2 $
Loading
Personal Weather Stations






























Interactive Weather Map
Tropical Storm Tracking
New forecast layout! Learn more

10-Day Weather Forecast

Advertisements
Track Severe Weather on mobile